Tiempo atmosférico en la estación meteorológica de Utiel, València/Valencia (761 m.)



Fecha
DESCASC
Temp. máxima en grados centígrados (hora)
DESCASC
Temp. mínima en grados centígrados (hora)
DESCASC
Temp. media en grados centígrados
DESCASC
Racha de viento máxima en m/sg (hora)
DESCASC
Velocidad máxima media en intervalos de 10 minutos(hora)
DESCASC
Precipitaciones diarias en mm
DESCASC
Precipitaciones de 00:00 a 06:00 en mm
DESCASC
Precipitaciones de 06:00 a 12:00 en mm
DESCASC
Precipitaciones de 12:00 a 18:00 en mm
DESCASC
Precipitaciones de 18:00 a 24:00 en mm
DESCASC
05-12-2019 10.2 (15:00) 6.3 (04:40) 8.3 8.33 (06:10) 5 (01:50) 1.8 1.4 0.2 0.2 0
04-12-2019 10.9 (15:20) 5.2 (07:30) 8 10.83 (08:20) 7.22 (06:50) 6.8 1.6 0.8 0.2 4.2
03-12-2019 7.3 (03:20) 5.1 (22:30) 6.2 10 (15:20) 6.11 (23:30) 0.8 0 0 0 0.8
02-12-2019 9.2 (13:40) 5 (00:00) 7.1 11.11 (13:10) 6.39 (13:40) 0.8 0 0.8 0 0
01-12-2019 12.2 (13:20) 3.8 (00:00) 8 8.61 (11:40) 6.11 (11:40) 0 0 0 0 0
30-11-2019 16.8 (15:00) 7.8 (00:00) 12.3 8.61 (16:10) 6.11 (14:10) 0 0 0 0 0
29-11-2019 15.5 (15:20) 9.4 (00:00) 12.4 14.17 (05:00) 8.61 (06:20) 0 0 0 0 0
28-11-2019 11.9 (14:30) 8.2 (03:50) 10 13.06 (12:50) 9.44 (11:50) 0 0 0 0 0
27-11-2019 12.9 (12:10) 8.8 (00:00) 10.8 17.22 (05:10) 11.67 (04:50) 0.2 0 0.2 0 0
26-11-2019 15.8 (15:30) 9.6 (00:00) 12.7 11.11 (13:10) 7.5 (21:50) 0 0 0 0 0
25-11-2019 14.1 (15:20) 5.5 (00:10) 9.8 11.67 (12:20) 7.78 (12:20) 0 0 0 0 0
24-11-2019 11.7 (15:00) 3.5 (00:00) 7.6 13.06 (00:20) 9.44 (05:00) 0 0 0 0 0
23-11-2019 10.4 (16:20) 5.6 (00:00) 8 20.28 (15:30) 12.78 (13:10) 1 1 0 0 0
22-11-2019 11.6 (14:40) 5.5 (00:00) 8.6 13.33 (23:30) 8.61 (23:40) 11.2 0 0 6.8 4.4
21-11-2019 11.1 (14:40) 5.1 (00:00) 8.1 8.61 (13:10) 5.83 (12:30) 0.6 0 0 0 0.6
20-11-2019 11.4 (14:50) -2.5 (07:30) 4.4 8.89 (20:00) 6.11 (20:00) 0 0 0 0 0
19-11-2019 11.5 (14:40) -2.1 (-00:0) 4.7 7.22 (13:40) 5.83 (05:10) 0 0 0 0 0
18-11-2019 10.4 (15:30) 0.7 (00:00) 5.5 15.28 (11:00) 10.83 (10:40) 0 0 0 0 0
17-11-2019 9.4 (14:00) 0.2 (00:00) 4.8 13.61 (14:20) 10 (14:40) 0.8 0 0 0 0.8
16-11-2019 11.9 (16:40) -2 (-00:0) 4.9 12.5 (10:30) 8.06 (10:20) 0 0 0 0 0
15-11-2019 9.7 (15:20) 2.3 (00:00) 6 10.83 (14:00) 7.22 (14:30) 0 0 0 0 0
14-11-2019 10.3 (03:50) 1.6 (00:00) 6 18.61 (07:00) 13.33 (06:50) 8 0 3.6 0.2 4.2
13-11-2019 16 (16:00) 7.4 (00:00) 11.7 16.11 (10:10) 10.28 (10:10) 2.4 1.4 1 0 0
12-11-2019 15.7 (15:30) 5.4 (00:00) 10.5 15.83 (07:50) 11.11 (07:50) 0 0 0 0 0
11-11-2019 11.5 (14:50) 2.5 (05:50) 7 15.28 (22:20) 9.72 (15:00) 0 0 0 0 0
10-11-2019 11 (14:10) 3.1 (00:00) 7 17.5 (02:00) 11.11 (02:00) 4 4 0 0 0
09-11-2019 12.8 (13:50) 2.3 (00:00) 7.6 14.72 (16:30) 10 (16:30) 0 0 0 0 0
08-11-2019 10.8 (15:30) 2.4 (08:00) 6.6 15.28 (12:50) 11.39 (12:50) 0 0 0 0 0
07-11-2019 15.6 (14:30) 4.3 (00:00) 10 15 (16:10) 9.44 (16:20) 1.8 0 0 0 1.8
06-11-2019 16.4 (14:20) 5.5 (00:00) 10.9 15.56 (10:20) 11.39 (10:20) 0 0 0 0 0

Gráficas

Temp. máximas Temp. mínimas Temp. medias Precipitaciones Rachas de viento máximas Velocidades máximas media en intervalos de 10 minutos

Datos horarios

Fecha y hora oficial Temperatura (ºC) Velocidad del viento (km/h) Dirección del viento Racha (km/h) Dirección de racha Precipitación (mm) Presión (hPa) Tendencia (hPa) Humedad (%)
2019-12-05 23:00:00 6.8 5 Sur 8 Sudoeste 0 933.5 1 91
2019-12-05 22:00:00 7.5 3 Este 11 Este 0 933.4 1.5 87
2019-12-05 21:00:00 8.3 8 Este 17 Este 0 932.8 1.6 83
2019-12-05 20:00:00 8.6 9 Este 18 Este 0 932.5 1.8 83
2019-12-05 19:00:00 8.6 12 Este 24 Nordeste 0 931.9 1.8 84
2019-12-05 18:00:00 8.5 6 Norte 12 Norte 0 931.2 1.4 90
2019-12-05 17:00:00 9.2 6 Nordeste 16 Nordeste 0 930.7 1.2 84
2019-12-05 16:00:00 9.6 10 Nordeste 20 Nordeste 0 930.1 0.4 82
2019-12-05 15:00:00 10.1 9 Nordeste 23 Este 0.2 929.8 -0.1 78
2019-12-05 14:00:00 9.3 11 Nordeste 21 Este 0 929.5 0.2 85
2019-12-05 13:00:00 9.4 11 Este 24 Nordeste 0 929.7 1.2 81
2019-12-05 12:00:00 8.9 6 Este 16 Este 0 929.9 2.2 84
2019-12-05 11:00:00 8.7 5 Nordeste 10 Este 0 929.3 2.5 84
2019-12-05 10:00:00 7.7 4 Norte 15 Norte 0 928.5 2.6 87
2019-12-05 09:00:00 7.6 10 Norte 21 Norte 0 927.7 2.5 87
2019-12-05 08:00:00 7.2 10 Noroeste 24 Nordeste 0.2 926.8 2.1 87
2019-12-05 07:00:00 7.6 14 Nordeste 30 Nordeste 0 925.9 1.7 83
2019-12-05 06:00:00 7.5 15 Nordeste 29 Nordeste 0 925.2 1.6 86
2019-12-05 05:00:00 6.5 12 Norte 20 Nordeste 0.2 924.7 1.6 91
2019-12-05 04:00:00 6.5 17 Norte 24 Norte 0.2 924.2 1.2 91
2019-12-05 03:00:00 6.6 16 Norte 22 Norte 0 923.6 1 91
2019-12-05 02:00:00 6.5 15 Norte 23 Norte 0.2 923.1 1.2 92
2019-12-05 01:00:00 6.7 14 Norte 22 Norte 0.8 923 1.6 90
2019-12-05 00:00:00 6.9 9 Norte 14 Nordeste 1.2 922.6 1.1 89
2019-12-04 23:00:00 7 11 Norte 22 Norte 0 921.9 0.6 89
2019-12-04 22:00:00 6.8 8 Noroeste 13 Oeste 0.4 921.4 0.9 89
2019-12-04 21:00:00 6.7 7 Noroeste 19 Norte 1.4 921.5 1.4 90
2019-12-04 20:00:00 7 9 Noroeste 16 Norte 1 921.3 1.5 89
2019-12-04 19:00:00 7.6 11 Norte 22 Norte 0.2 920.5 1.3 82
2019-12-04 18:00:00 8.1 15 Norte 21 Norte 0.2 920.1 1.6 78
2019-12-04 17:00:00 8.9 7 Norte 28 Norte 0 919.8 1.3 75
2019-12-04 16:00:00 9.7 18 Norte 26 Norte 0 919.2 0.4 74
2019-12-04 15:00:00 10.4 12 Norte 28 Norte 0 918.5 -1.3 72
2019-12-04 14:00:00 10.5 19 Norte 29 Norte 0 918.5 -1.5 68
2019-12-04 13:00:00 9.1 18 Norte 28 Norte 0 918.8 -0.2 76
2019-12-04 12:00:00 8 18 Norte 23 Norte 0 919.8 0.7 78
2019-12-04 11:00:00 7 12 Norte 26 Norte 0 920 1.4 84
2019-12-04 10:00:00 6.9 13 Norte 34 Norte 0 919 -0.9 82
2019-12-04 09:00:00 5.7 17 Norte 39 Norte 0 919.1 -1 85
2019-12-04 08:00:00 5.3 22 Norte 34 Noroeste 0.6 918.6 -2.3 88
2019-12-04 07:00:00 5.6 26 Norte 35 Norte 0.2 919.9 -1.5 86
2019-12-04 06:00:00 5.5 23 Norte 33 Norte 0.4 920.1 -1.9 89
2019-12-04 05:00:00 5.6 17 Norte 31 Norte 0 920.9 -2.2 88
2019-12-04 04:00:00 5.9 13 Norte 36 Noroeste 0 921.4 -2.6 87
2019-12-04 03:00:00 5.6 22 Norte 35 Norte 0.2 922 -2.6 89
2019-12-04 02:00:00 5.5 22 Norte 31 Norte 0.6 923.1 -2.1 90
2019-12-04 01:00:00 5.6 15 Norte 25 Norte 0.4 924 -2 90
2019-12-04 00:00:00 5.4 20 Norte 30 Noroeste 0.2 924.6 -1.6 90
2019-12-03 23:00:00 5.4 19 Norte 25 Norte 0.6 925.2 -1.2 89
2019-12-03 22:00:00 5.5 11 Norte 26 Norte 0 926 -0.3 85
2019-12-03 21:00:00 6 10 Norte 27 Nordeste 0 926.2 0.1 76
2019-12-03 20:00:00 6.2 13 Nordeste 24 Nordeste 0 926.4 0.5 71
2019-12-03 19:00:00 6.1 12 Nordeste 26 Nordeste 0 926.3 0.3 75
2019-12-03 18:00:00 6.6 16 Nordeste 25 Nordeste 0 926.1 0 72
2019-12-03 17:00:00 6.8 12 Nordeste 21 Nordeste 0 925.9 -0.6 77
2019-12-03 16:00:00 6.2 13 Este 36 Este 0 926 -1.2 81
2019-12-03 15:00:00 6.6 15 Este 29 Este 0 926.1 -2 76
2019-12-03 14:00:00 7 15 Este 28 Este 0 926.5 -2.1 76
2019-12-03 13:00:00 6.9 15 Nordeste 30 Este 0 927.2 -1.2 77
2019-12-03 12:00:00 6.9 12 Nordeste 25 Nordeste 0 928.1 -0.2 81
2019-12-03 11:00:00 6.5 10 Nordeste 22 Nordeste 0 928.6 0.5 82
2019-12-03 10:00:00 6.7 13 Nordeste 22 Este 0 928.4 0.6 80
2019-12-03 09:00:00 6.5 10 Nordeste 22 Nordeste 0 928.3 0.7 80
2019-12-03 08:00:00 6.6 8 Nordeste 23 Este 0 928.1 0 78
2019-12-03 07:00:00 6.7 11 Nordeste 22 Nordeste 0 927.8 -0.7 77
2019-12-03 06:00:00 6.7 6 Norte 18 Nordeste 0 927.6 -1.2 81
2019-12-03 05:00:00 7.1 11 Nordeste 21 Este 0 928.1 -0.9 80
2019-12-03 04:00:00 7.3 13 Nordeste 21 Este 0 928.5 -0.9 78
2019-12-03 03:00:00 7.2 10 Nordeste 18 Este 0 928.8 -0.7 79
2019-12-03 02:00:00 6.3 8 Nordeste 14 Nordeste 0 929 -0.4 85
2019-12-03 01:00:00 5.9 5 Norte 11 Nordeste 0 929.4 0.1 85
2019-12-03 00:00:00 6.7 6 Nordeste 21 Este 0 929.5 0.5 79
2019-12-02 23:00:00 7.4 11 Este 22 Este 0 929.4 0.6 74
2019-12-02 22:00:00 7.8 10 Este 20 Nordeste 0 929.3 1.1 71
2019-12-02 21:00:00 8.1 13 Nordeste 22 Nordeste 0 929 1.1 67
2019-12-02 20:00:00 7.9 10 Nordeste 24 Nordeste 0 928.8 1.3 70
2019-12-02 19:00:00 7.7 14 Nordeste 26 Nordeste 0 928.2 0.8 73
2019-12-02 18:00:00 7.6 11 Nordeste 29 Nordeste 0 927.9 0.8 76
2019-12-02 17:00:00 7.8 17 Nordeste 32 Nordeste 0 927.5 0.1 76
2019-12-02 16:00:00 8.5 16 Nordeste 35 Nordeste 0 927.4 -0.2 72
2019-12-02 15:00:00 8.3 18 Nordeste 32 Nordeste 0 927.1 -0.8 76
2019-12-02 14:00:00 8.6 18 Nordeste 40 Nordeste 0 927.4 -0.2 76
2019-12-02 13:00:00 8.5 19 Nordeste 36 Nordeste 0 927.6 0.9 78
2019-12-02 12:00:00 7.8 20 Nordeste 32 Nordeste 0 927.9 1.7 80
2019-12-02 11:00:00 7.5 8 Nordeste 21 Nordeste 0 927.6 1.5 80
2019-12-02 10:00:00 6.9 14 Norte 25 Norte 0 926.7 1 80
2019-12-02 09:00:00 6.1 15 Norte 21 Norte 0.2 926.2 1.2 86
2019-12-02 08:00:00 6.4 6 Norte 23 Este 0.6 926.1 1.3 81
2019-12-02 07:00:00 6.5 3 Nordeste 11 Norte 0 925.7 1.1 82
2019-12-02 06:00:00 6.7 7 Norte 16 Norte 0 925 0.4 82
2019-12-02 05:00:00 7.2 10 Noroeste 19 Noroeste 0 924.8 0 81
2019-12-02 04:00:00 7.6 6 Norte 20 Nordeste 0 924.6 -0.3 73
2019-12-02 03:00:00 7.6 9 Nordeste 17 Nordeste 0 924.6 -0.4 79
2019-12-02 02:00:00 7.2 7 Este 19 Nordeste 0 924.8 -0.3 83
2019-12-02 01:00:00 5.4 5 Norte 8 Noroeste 0 924.9 0.2 88
2019-12-02 00:00:00 5 6 Noroeste 8 Noroeste 0 925 0.6 87
2019-12-01 23:00:00 4.5 4 Norte 9 Oeste 0 925.1 0.7 85
2019-12-01 22:00:00 4 3 Norte 12 Sudeste 0 924.7 0.9 88
2019-12-01 21:00:00 4.2 5 Norte 10 Norte 0 924.4 0.6 86
2019-12-01 20:00:00 4.9 5 Norte 7 Noroeste 0 924.4 0.7 83
2019-12-01 19:00:00 5.9 5 Noroeste 10 Noroeste 0 923.8 0.1 78
2019-12-01 18:00:00 8.4 9 Noroeste 17 Noroeste 0 923.8 -0.4 67
2019-12-01 17:00:00 9.9 13 Noroeste 28 Noroeste 0 923.7 -0.9 60
2019-12-01 16:00:00 11.5 17 Noroeste 26 Oeste 0 923.7 -1.4 52
2019-12-01 15:00:00 10.9 14 Noroeste 25 Noroeste 0 924.2 -1.7 54
2019-12-01 14:00:00 11.6 14 Noroeste 31 Oeste 0 924.6 -1.6 55
2019-12-01 13:00:00 11.9 19 Oeste 28 Oeste 0 925.1 -1 56
2019-12-01 12:00:00 10 20 Oeste 31 Oeste 0 925.9 0.2 65
2019-12-01 11:00:00 9.2 14 Noroeste 19 Noroeste 0 926.2 0.8 66
2019-12-01 10:00:00 7.4 8 Oeste 15 Oeste 0 926.1 1 83
2019-12-01 09:00:00 5.6 9 Sudoeste 14 Sudoeste 0 925.7 0.6 90
2019-12-01 08:00:00 6.4 12 Sudoeste 14 Sudoeste 0 925.4 0.4 88
2019-12-01 07:00:00 8 8 Noroeste 21 Noroeste 0 925.1 -0.5 83
2019-12-01 06:00:00 9.4 12 Noroeste 24 Noroeste 0 925.1 -1 81
2019-12-01 05:00:00 10 15 Oeste 27 Oeste 0 925 -1.6 90
2019-12-01 04:00:00 10.3 15 Oeste 22 Sudoeste 0 925.6 -1.8 87
2019-12-01 03:00:00 8.7 3 Norte 7 Sudeste 0 926.1 -1.8 88
2019-12-01 02:00:00 8.1 4 Sudeste 6 Sudeste 0 926.6 -1.9 89
2019-12-01 01:00:00 8.2 0 Calma 6 Norte 0 927.4 -1.5 89
2019-12-01 00:00:00 7.8 4 Sur 8 Sudoeste 0 927.9 -1.1 89
2019-11-30 23:00:00 8.2 4 Norte 16 Sudoeste 0 928.5 -0.7 87
2019-11-30 22:00:00 9 13 Oeste 21 Oeste 0 928.9 -0.4 83
2019-11-30 21:00:00 9.2 10 Oeste 15 Oeste 0 929 -0.2 82
2019-11-30 20:00:00 10.4 6 Oeste 23 Oeste 0 929.2 -0.2 76
2019-11-30 19:00:00 11.7 17 Oeste 29 Oeste 0 929.3 -0.7 72
2019-11-30 18:00:00 12.8 10 Oeste 23 Oeste 0 929.2 -1.2 67
2019-11-30 17:00:00 15.2 18 Oeste 31 Oeste 0 929.4 -1.8 59
2019-11-30 16:00:00 16.4 21 Oeste 30 Oeste 0 930 -2.2 56
2019-11-30 15:00:00 16.8 16 Oeste 30 Oeste 0 930.4 -2.7 54
2019-11-30 14:00:00 16.3 19 Oeste 28 Oeste 0 931.2 -2.4 57
2019-11-30 13:00:00 15.1 14 Oeste 28 Noroeste 0 932.2 -1.3 64
2019-11-30 12:00:00 13.8 21 Oeste 30 Oeste 0 933.1 -0.2 68
2019-11-30 11:00:00 13.8 19 Oeste 25 Oeste 0 933.6 0.4 74
2019-11-30 10:00:00 11.9 6 Oeste 15 Oeste 0 933.5 0 80
2019-11-30 09:00:00 10.2 8 Oeste 16 Oeste 0 933.3 -0.2 89
2019-11-30 08:00:00 10 10 Sudoeste 17 Sudoeste 0 933.2 0 89
2019-11-30 07:00:00 10.4 11 Sudoeste 17 Oeste 0 933.5 -0.4 89
2019-11-30 06:00:00 9.9 6 Oeste 9 Oeste 0 933.5 -0.5 90
2019-11-30 05:00:00 10.5 2 Sudoeste 15 Oeste 0 933.2 -1.1 90
2019-11-30 04:00:00 10.3 14 Oeste 19 Oeste 0 933.9 -0.3 90
2019-11-30 03:00:00 10.7 14 Oeste 18 Oeste 0 934 -0.4 89
2019-11-30 02:00:00 11.3 11 Sudoeste 17 Sudoeste 0 934.3 -0.2 88
2019-11-30 01:00:00 11.4 4 Sudoeste 18 Oeste 0 934.2 -0.3 89
2019-11-30 00:00:00 11.4 4 Oeste 15 Oeste 0 934.4 -0.1 89
2019-11-29 23:00:00 11.8 11 Sudoeste 17 Sudoeste 0 934.5 0.4 85
2019-11-29 22:00:00 11.9 14 Oeste 19 Oeste 0 934.5 0.7 83
2019-11-29 21:00:00 11.9 14 Oeste 19 Oeste 0 934.5 1 83
2019-11-29 20:00:00 12.2 11 Oeste 15 Oeste 0 934.1 0.9 83
2019-11-29 19:00:00 12.7 9 Oeste 18 Noroeste 0 933.8 1.4 81
2019-11-29 18:00:00 13.2 14 Noroeste 21 Oeste 0 933.5 1 77
2019-11-29 17:00:00 14 15 Noroeste 31 Noroeste 0 933.2 0.6 71
2019-11-29 16:00:00 14.3 21 Noroeste 32 Oeste 0 932.4 -1.3 69
2019-11-29 15:00:00 15.1 20 Noroeste 34 Noroeste 0 932.5 -1.7 66
2019-11-29 14:00:00 13.5 25 Noroeste 35 Noroeste 0 932.6 -0.9 72
2019-11-29 13:00:00 13.6 16 Noroeste 30 Noroeste 0 933.7 1.1 74
2019-11-29 12:00:00 12.1 21 Noroeste 31 Noroeste 0 934.2 2.1 79
2019-11-29 11:00:00 11.7 19 Noroeste 40 Oeste 0 933.5 1.7 81
2019-11-29 10:00:00 10.8 29 Oeste 40 Oeste 0 932.6 1.4 85
2019-11-29 09:00:00 9.8 23 Oeste 30 Oeste 0 932.1 1.3 87
2019-11-29 08:00:00 9.9 17 Oeste 39 Noroeste 0 931.8 1.5 84
2019-11-29 07:00:00 9.9 28 Oeste 46 Oeste 0 931.2 0.7 83
2019-11-29 06:00:00 9.7 24 Oeste 48 Oeste 0 930.8 0.3 82
2019-11-29 05:00:00 9.9 31 Oeste 51 Oeste 0 930.3 0.1 80
2019-11-29 04:00:00 9.9 22 Oeste 35 Oeste 0 930.5 -0.3 80
2019-11-29 03:00:00 9.9 21 Oeste 35 Oeste 0 930.5 -0.5 80
2019-11-29 02:00:00 9.8 16 Oeste 37 Oeste 0 930.2 -1 81
2019-11-29 01:00:00 9.4 21 Oeste 29 Oeste 0 930.8 -0.1 82
2019-11-29 00:00:00 9.8 18 Oeste 31 Oeste 0 931 0.4 82
2019-11-28 23:00:00 9.7 15 Oeste 26 Oeste 0 931.2 0.7 83
2019-11-28 22:00:00 9.4 12 Oeste 23 Noroeste 0 930.9 1.1 82
2019-11-28 21:00:00 9.4 15 Oeste 27 Oeste 0 930.6 0.8 80
2019-11-28 20:00:00 9.6 15 Oeste 25 Oeste 0 930.5 0.5 81
2019-11-28 19:00:00 9.5 12 Oeste 20 Oeste 0 929.8 0.3 81
2019-11-28 18:00:00 9.4 10 Oeste 39 Noroeste 0 929.8 0.4 76
2019-11-28 17:00:00 10.2 24 Oeste 38 Oeste 0 930 0.1 74
2019-11-28 16:00:00 10.7 24 Oeste 36 Oeste 0 929.5 -0.7 73
2019-11-28 15:00:00 11.3 23 Oeste 37 Oeste 0 929.4 -1.8 69
2019-11-28 14:00:00 11.4 27 Oeste 44 Noroeste 0 929.9 -1.2 68
2019-11-28 13:00:00 11.1 28 Noroeste 47 Noroeste 0 930.2 0.2 69
2019-11-28 12:00:00 10.4 30 Oeste 45 Oeste 0 931.2 2 74
2019-11-28 11:00:00 9.8 31 Oeste 41 Oeste 0 931.1 2.8 74
2019-11-28 10:00:00 9.7 29 Oeste 42 Oeste 0 930 1.6 76
2019-11-28 09:00:00 8.6 27 Oeste 43 Oeste 0 929.2 1.5 78
2019-11-28 08:00:00 8.5 28 Oeste 37 Noroeste 0 928.3 0.5 76
2019-11-28 07:00:00 8.8 21 Oeste 41 Noroeste 0 928.4 0.3 75
2019-11-28 06:00:00 9.2 18 Noroeste 36 Oeste 0 927.7 0.1 75
2019-11-28 05:00:00 8.5 10 Sudoeste 20 Oeste 0 927.8 0.1 81
2019-11-28 04:00:00 8.4 11 Sudoeste 22 Sudoeste 0 928.1 0.1 81
2019-11-28 03:00:00 8.5 14 Sudoeste 23 Sudoeste 0 927.6 -0.1 80
2019-11-28 02:00:00 8.6 4 Sudoeste 16 Oeste 0 927.7 0.4 80
2019-11-28 01:00:00 8.9 7 Oeste 23 Noroeste 0 928 1 79
2019-11-28 00:00:00 8.8 14 Noroeste 36 Noroeste 0 927.7 1.2 77
2019-11-27 23:00:00 9 12 Noroeste 24 Noroeste 0 927.3 1.2 75
2019-11-27 22:00:00 8.8 13 Noroeste 30 Noroeste 0 927 1 75
2019-11-27 21:00:00 9.1 15 Noroeste 30 Oeste 0 926.5 1 74
2019-11-27 20:00:00 10 17 Noroeste 30 Noroeste 0 926.1 0.3 70
2019-11-27 19:00:00 10.1 13 Noroeste 31 Noroeste 0 926 0.5 70
2019-11-27 18:00:00 10.4 15 Oeste 34 Noroeste 0 925.5 -0.2 67
2019-11-27 17:00:00 11.5 18 Noroeste 31 Oeste 0 925.8 -0.3 63
2019-11-27 16:00:00 11.9 19 Oeste 38 Noroeste 0 925.5 -0.5 59
2019-11-27 15:00:00 12.1 24 Oeste 43 Oeste 0 925.7 -0.4 59
2019-11-27 14:00:00 12.4 23 Oeste 42 Oeste 0 926.1 0.1 63
2019-11-27 06:00:00 10.8 33 Oeste 62 Oeste 0 922.4 -0.4 78
2019-11-27 05:00:00 11.3 41 Oeste 61 Oeste 0 922.1 -1 77
2019-11-27 04:00:00 11.8 36 Oeste 50 Oeste 0 922.4 -1.2 79
2019-11-27 03:00:00 12.2 30 Oeste 51 Oeste 0 922.8 -1.1 82
2019-11-27 02:00:00 12.1 25 Oeste 43 Oeste 0 923.1 -1.2 87
2019-11-27 01:00:00 12 27 Oeste 45 Oeste 0 923.6 -0.9 86
2019-11-27 00:00:00 12.3 24 Oeste 39 Oeste 0 923.9 -0.6 83
2019-11-26 23:00:00 12.1 22 Oeste 39 Oeste 0 924.3 -0.8 83
2019-11-26 22:00:00 12.3 27 Oeste 40 Oeste 0 924.5 -0.6 84
2019-11-26 21:00:00 12.4 19 Oeste 28 Oeste 0 924.5 -0.7 84
2019-11-26 20:00:00 12.7 15 Oeste 27 Oeste 0 925.1 -0.2 83
2019-11-26 19:00:00 12.5 11 Oeste 18 Oeste 0 925.1 -0.5 78
2019-11-26 18:00:00 13.2 11 Oeste -- -- 0 925.2 -0.6 75
2019-11-26 17:00:00 13.5 16 Oeste 28 Oeste 0 925.3 -1.2 77
2019-11-26 16:00:00 13.9 18 Oeste 37 Oeste 0 925.6 -1.6 77
2019-11-26 15:00:00 14.5 24 Oeste 36 Oeste 0 925.8 -2.3 71
2019-11-26 14:00:00 14.1 22 Noroeste 40 Noroeste 0 926.5 -2 68
2019-11-26 13:00:00 14.2 18 Noroeste 32 Oeste 0 927.2 -1.2 66
2019-11-26 12:00:00 13.2 19 Oeste 35 Oeste 0 928.1 0.1 66
2019-11-26 11:00:00 12.5 22 Oeste 37 Noroeste 0 928.5 0.9 65
2019-11-26 10:00:00 11.6 18 Oeste 33 Noroeste 0 928.4 0.9 70
2019-11-26 09:00:00 11.1 18 Oeste 34 Oeste 0 928 0.7 72
2019-11-26 08:00:00 11 18 Oeste 32 Oeste 0 927.6 0.4 72
2019-11-26 07:00:00 11.3 15 Oeste 33 Oeste 0 927.5 -0.2 74
2019-11-26 06:00:00 11.5 18 Oeste 32 Noroeste 0 927.3 -0.7 74
2019-11-26 05:00:00 11.3 22 Noroeste 37 Noroeste 0 927.2 -1.1 75
2019-11-26 04:00:00 11.2 15 Noroeste 22 Noroeste 0 927.7 -1.1 80
2019-11-26 03:00:00 10.6 5 Oeste 17 Oeste 0 928 -1.1 83
2019-11-26 02:00:00 10 11 Oeste 19 Oeste 0 928.3 -0.7 84
2019-11-26 01:00:00 10.6 14 Oeste 28 Noroeste 0 928.8 0.2 81
2019-11-26 00:00:00 10.1 7 Sudoeste 18 Noroeste 0 929.1 0.7 84
2019-11-25 23:00:00 11 17 Noroeste 28 Noroeste 0 929 0.8 78
2019-11-25 22:00:00 11 19 Noroeste 41 Noroeste 0 928.6 0.6 79
2019-11-25 21:00:00 11.2 23 Noroeste 33 Noroeste 0 928.4 1 79
2019-11-25 20:00:00 10.8 11 Noroeste 29 Noroeste 0 928.2 0.8 80
2019-11-25 19:00:00 11.8 11 Oeste 29 Noroeste 0 928 0.9 77
2019-11-25 18:00:00 12.4 15 Oeste 27 Oeste 0 927.4 0.5 78
2019-11-25 17:00:00 12.9 19 Oeste 28 Oeste 0 927.4 0.5 78
2019-11-25 16:00:00 13.3 18 Oeste 31 Noroeste 0 927.1 -0.2 75
2019-11-25 15:00:00 13.8 27 Oeste 38 Noroeste 0 926.9 -0.8 65
2019-11-25 14:00:00 13.7 21 Oeste 40 Noroeste 0 926.9 -0.9 69
2019-11-25 13:00:00 12.6 28 Oeste 42 Noroeste 0 927.3 -0.2 75
2019-11-25 12:00:00 11.5 22 Noroeste 33 Noroeste 0 927.7 0.7 79
2019-11-25 11:00:00 10 12 Oeste 22 Oeste 0 927.8 0.8 87
2019-11-25 10:00:00 9.2 13 Noroeste 28 Oeste 0 927.5 1 87
2019-11-25 09:00:00 8.5 22 Oeste 35 Oeste 0 927 0.3 90
2019-11-25 08:00:00 8.3 19 Oeste 30 Oeste 0 927 0 91
2019-11-25 07:00:00 7.8 13 Oeste 25 Oeste 0 926.5 -0.5 92
2019-11-25 06:00:00 7.6 14 Oeste 27 Oeste 0 926.7 -0.4 92
2019-11-25 05:00:00 7.4 17 Oeste 31 Oeste 0 927 -0.4 89
2019-11-25 04:00:00 7.3 19 Oeste 32 Oeste 0 927 -0.5 88
2019-11-25 03:00:00 7.5 17 Oeste 35 Oeste 0 927.1 -0.9 82
2019-11-25 02:00:00 6.8 19 Oeste 27 Oeste 0 927.4 -0.5 83
2019-11-25 01:00:00 5.8 15 Sudoeste 21 Sudoeste 0 927.5 -0.4 85
2019-11-25 00:00:00 5.6 18 Oeste 28 Oeste 0 928 0.4 84
2019-11-24 23:00:00 4.9 13 Oeste 26 Oeste 0 927.9 0.6 85
2019-11-24 22:00:00 5.7 25 Oeste 33 Oeste 0 927.9 0.8 82
2019-11-24 21:00:00 5.7 4 Sur 30 Oeste 0 927.6 1.4 80
2019-11-24 20:00:00 6.4 21 Oeste 28 Oeste 0 927.3 1.5 72
2019-11-24 19:00:00 7.4 21 Oeste 40 Oeste 0 927.1 1.7 63
2019-11-24 18:00:00 8.8 23 Oeste 38 Oeste 0 926.2 0.7 56
2019-11-24 17:00:00 10.6 18 Noroeste 38 Oeste 0 925.8 0.2 52
2019-11-24 16:00:00 11.1 23 Noroeste 39 Oeste 0 925.4 -0.5 48
2019-11-24 15:00:00 11.6 23 Oeste 36 Oeste 0 925.5 -0.6 49
2019-11-24 14:00:00 10.7 27 Oeste 40 Oeste 0 925.6 -0.8 55
2019-11-24 13:00:00 9.5 23 Oeste 44 Oeste 0 925.9 -0.1 58
2019-11-24 12:00:00 8.9 27 Oeste 46 Noroeste 0 926.1 1 58
2019-11-24 11:00:00 8.6 25 Noroeste 42 Noroeste 0 926.4 1.6 59
2019-11-24 10:00:00 7 24 Oeste 36 Oeste 0 926 2.1 65
2019-11-24 09:00:00 5.1 21 Oeste 30 Oeste 0 925.1 2.3 73
2019-11-24 08:00:00 4.4 6 Noroeste 17 Sur 0 924.8 2.4 75
2019-11-24 07:00:00 4.7 9 Norte 41 Noroeste 0 923.9 1.5 74
2019-11-24 06:00:00 5.1 27 Noroeste 47 Noroeste 0 922.8 0.4 73
2019-11-24 05:00:00 5.3 34 Noroeste 44 Noroeste 0 922.4 -0.1 72
2019-11-24 04:00:00 5 23 Noroeste 39 Noroeste 0 922.4 -0.1 72
2019-11-24 03:00:00 5.2 22 Noroeste 41 Noroeste 0 922.4 1 70
2019-11-24 02:00:00 5.8 19 Noroeste 32 Noroeste 0 922.5 1.2 67
2019-11-24 01:00:00 6.5 23 Noroeste 47 Noroeste 0 922.5 1.6 64
2019-11-24 00:00:00 6.3 36 Noroeste 49 Noroeste 0 921.4 1.3 66
2019-11-23 23:00:00 6.7 32 Noroeste 45 Noroeste 0 921.3 2 64
2019-11-23 22:00:00 6.8 19 Noroeste 28 Noroeste 0 920.9 2.2 62
2019-11-23 21:00:00 7.5 19 Noroeste 40 Noroeste 0 920.1 2.4 59
2019-11-23 20:00:00 8 26 Noroeste 38 Noroeste 0 919.3 2.9 58
2019-11-23 19:00:00 7.8 11 Oeste 39 Noroeste 0 918.7 3.3 58
2019-11-23 18:00:00 8.9 26 Noroeste 43 Noroeste 0 917.7 3.6 52
2019-11-23 17:00:00 9.8 32 Noroeste 58 Noroeste 0 916.4 2.6 50
2019-11-23 16:00:00 10.2 37 Noroeste 73 Noroeste 0 915.4 2.3 48
2019-11-23 15:00:00 10.1 46 Noroeste 70 Noroeste 0 914.1 0.9 50
2019-11-23 14:00:00 9.7 46 Noroeste 70 Noroeste 0 913.8 0.6 54
2019-11-23 13:00:00 9.5 41 Noroeste 69 Noroeste 0 913.1 1.5 61
2019-11-23 12:00:00 9.1 35 Noroeste 58 Oeste 0 913.2 3 66
2019-11-23 11:00:00 8.3 24 Noroeste 52 Oeste 0 913.2 4 68
2019-11-23 10:00:00 7.7 43 Oeste 66 Noroeste 0 911.6 2.9 72
2019-11-23 09:00:00 6.3 34 Oeste 58 Oeste 0 910.2 2.1 79
2019-11-23 08:00:00 6.3 25 Oeste 49 Oeste 0 909.2 0.9 79
2019-11-23 07:00:00 6 27 Oeste 42 Oeste 0 908.7 1 82
2019-11-23 06:00:00 5.8 27 Oeste 64 Noroeste 0.4 908.1 0.1 78
2019-11-23 05:00:00 7.2 32 Oeste 59 Oeste 0.6 908.3 0.3 83
2019-11-23 04:00:00 7.7 28 Oeste 55 Oeste 0 907.7 -1.1 84
2019-11-23 03:00:00 8.5 33 Oeste 48 Oeste 0 908 -1 79
2019-11-23 02:00:00 9.1 30 Oeste 46 Oeste 0 908 -1.1 82
2019-11-23 01:00:00 9.4 26 Oeste 51 Oeste 0 908.8 0 81
2019-11-23 00:00:00 9.6 28 Oeste 48 Oeste 0 909 0.2 82
2019-11-22 23:00:00 10 23 Oeste 44 Oeste 0 909.1 0 83
2019-11-22 22:00:00 10.6 25 Sudoeste 39 Sudoeste 0 908.8 -1 83
2019-11-22 21:00:00 10.4 14 Sudoeste 31 Sudoeste 0.2 908.8 -1.8 91
2019-11-22 20:00:00 10.3 25 Sur 39 Sur 3 909.1 -1.3 91
2019-11-22 19:00:00 10.2 15 Sur 26 Sur 1.2 909.8 -1.6 92
2019-11-22 18:00:00 10.2 20 Sur 32 Sur 1 910.6 -1.8 92
2019-11-22 17:00:00 10.2 14 Sudeste 24 Sudeste 2.6 910.4 -3.3 93
2019-11-22 16:00:00 10.5 14 Sur 26 Sur 3 911.4 -3.7 90
2019-11-22 15:00:00 11.3 14 Sur 22 Sudeste 0.2 912.4 -4.3 83
2019-11-22 14:00:00 10.9 10 Sur 24 Sur 0 913.7 -3.8 86
2019-11-22 13:00:00 10.9 14 Sur 19 Sur 0 915.1 -2.9 81
2019-11-22 12:00:00 10.4 13 Sur 22 Sudoeste 0 916.7 -1.9 81
2019-11-22 11:00:00 9.8 6 Sudeste 15 Sudoeste 0 917.5 -1.2 87
2019-11-22 10:00:00 7.2 5 Sudeste 7 Sudeste 0 918 -0.5 96
2019-11-22 09:00:00 6.2 4 Sudeste 8 Sudeste 0 918.6 -0.5 95
2019-11-22 08:00:00 5.7 3 Este 8 Sudoeste 0 918.7 -0.8 95
2019-11-22 07:00:00 6 4 Sudeste 6 Sudeste 0 918.5 -1.2 94
2019-11-22 06:00:00 6.5 0 Calma 7 Oeste 0 919.1 -0.8 93
2019-11-22 05:00:00 7 6 Oeste 11 Oeste 0 919.5 -1.1 93
2019-11-22 04:00:00 6.5 5 Sudoeste 8 Sur 0 919.7 -1.3 95
2019-11-22 03:00:00 6.3 5 Sur 8 Oeste 0 919.9 -1.5 94
2019-11-22 02:00:00 6.8 9 Oeste 12 Oeste 0 920.6 -0.9 93
2019-11-22 01:00:00 7.5 4 Oeste 9 Oeste 0 921 -0.5 92
2019-11-22 00:00:00 7.6 8 Oeste 12 Oeste 0 921.4 0 92
2019-11-21 23:00:00 7.9 4 Sudoeste 11 Sudoeste 0 921.5 0.1 91
2019-11-21 22:00:00 8.1 6 Sudoeste 12 Sudoeste 0 921.5 0.3 91
2019-11-21 21:00:00 8 4 Noroeste 9 Sur 0.2 921.4 0.5 92
2019-11-21 20:00:00 8.1 2 Este 6 Sur 0.2 921.4 0.6 88
2019-11-21 19:00:00 8.4 4 Sur 16 Oeste 0.2 921.2 0.5 86
2019-11-21 18:00:00 9.5 4 Oeste 14 Oeste 0 920.9 0 70
2019-11-21 17:00:00 10.3 -- -- -- -- 0 920.8 -0.4 65
2019-11-21 16:00:00 10.8 15 Oeste 24 Oeste 0 920.7 -1.2 64
2019-11-21 15:00:00 10.9 16 Oeste 28 Oeste 0 920.9 -1.7 64
2019-11-21 14:00:00 10.7 14 Oeste 31 Oeste 0 921.2 -1.6 66
2019-11-21 13:00:00 9.5 20 Oeste 29 Sudoeste 0 921.9 -0.7 74
2019-11-21 12:00:00 8.8 18 Oeste 26 Oeste 0 922.6 0.3 77
2019-11-21 11:00:00 8 15 Oeste 24 Oeste 0 922.8 1.3 81
2019-11-21 10:00:00 7 8 Sudoeste 12 Sur 0 922.6 1.2 85
2019-11-21 09:00:00 5.7 4 Sur 9 Sudoeste 0 922.3 0.9 90
2019-11-21 08:00:00 -- -- -- -- -- -- -- -- --
2019-11-21 07:00:00 -- -- -- -- -- -- -- -- --
2019-11-21 06:00:00 -- -- -- -- -- -- -- -- --
2019-11-21 05:00:00 -- -- -- -- -- -- -- -- --
2019-11-21 04:00:00 -- -- -- -- -- -- -- -- --
2019-11-21 03:00:00 -- -- -- -- -- -- -- -- --
2019-11-21 02:00:00 -- -- -- -- -- -- -- -- --
2019-11-21 01:00:00 -- -- -- -- -- -- -- -- --
2019-11-21 00:00:00 -- -- -- -- -- -- -- -- --
2019-11-20 23:00:00 -- -- -- -- -- -- -- -- --
2019-11-20 22:00:00 -- -- -- -- -- -- -- -- --
2019-11-20 21:00:00 -- -- -- -- -- -- -- -- --
2019-11-20 20:00:00 -- -- -- -- -- -- -- -- --
2019-11-20 19:00:00 7.7 6 Sudoeste 10 Sudoeste 0 921.9 -0.2 59
2019-11-20 18:00:00 8.3 5 Oeste 15 Oeste 0 921.7 -0.6 56
2019-11-20 17:00:00 9.2 9 Sudoeste 22 Oeste 0 922 -1 47
2019-11-20 16:00:00 10.7 15 Sudoeste 24 Oeste 0 922.1 -1.6 43
2019-11-20 15:00:00 10.9 11 Sudoeste 21 Sudoeste 0 922.3 -2.3 39
2019-11-20 14:00:00 10.4 11 Sur 19 Sur 0 923 -2 55
2019-11-20 13:00:00 10.1 11 Sudoeste 21 Sudoeste 0 923.7 -1.4 54
2019-11-20 12:00:00 9.2 11 Sur 19 Sur 0 924.6 -0.4 62
2019-11-20 11:00:00 7.2 4 Sudeste 8 Sudeste 0 925 0.1 66
2019-11-20 10:00:00 3.2 4 Sur 6 Noroeste 0 925.1 -0.1 79
2019-11-20 09:00:00 -0.9 7 Noroeste 9 Oeste 0 925 -0.3 92
2019-11-20 08:00:00 -2.3 4 Noroeste 8 Noroeste 0 924.9 -0.6 93
2019-11-20 07:00:00 -2 6 Noroeste 6 Noroeste 0 925.2 -0.8 93
2019-11-20 06:00:00 -1.6 3 Norte 8 Noroeste 0 925.3 -0.7 90
2019-11-20 05:00:00 -1.3 4 Noroeste 7 Noroeste 0 925.5 -0.8 90
2019-11-20 04:00:00 -0.9 5 Norte 8 Noroeste 0 926 -1 87
2019-11-20 03:00:00 -0.6 5 Noroeste 8 Noroeste 0 926 -1.2 88
2019-11-20 02:00:00 -0.3 3 Norte 10 Noroeste 0 926.3 -1.2 86
2019-11-20 01:00:00 -0.3 6 Noroeste 10 Norte 0 927 -0.6 87
2019-11-20 00:00:00 1.5 3 Oeste 5 Sudoeste 0 927.2 -0.3 84
2019-11-19 23:00:00 2.1 5 Noroeste 8 Nordeste 0 927.5 0.3 78
2019-11-19 22:00:00 4 4 Norte 10 Oeste 0 927.6 0.5 71
2019-11-19 21:00:00 4.6 4 Sudoeste 9 Sur 0 927.5 0.8 69
2019-11-19 20:00:00 5.5 6 Nordeste 24 Oeste 0 927.2 0.6 61
2019-11-19 19:00:00 6.8 9 Noroeste 17 Noroeste 0 927.1 0.4 54
2019-11-19 18:00:00 7.3 6 Norte 19 Oeste 0 926.7 -0.1 51
2019-11-19 17:00:00 10 16 Oeste 24 Oeste 0 926.6 -0.8 42
2019-11-19 16:00:00 11.2 15 Oeste 25 Noroeste 0 926.7 -1.2 36
2019-11-19 15:00:00 11.1 15 Noroeste 26 Noroeste 0 926.8 -2.1 36
2019-11-19 14:00:00 10.5 17 Oeste 26 Oeste 0 927.4 -1.7 33
2019-11-19 13:00:00 9.9 15 Noroeste 25 Norte 0 927.9 -1.2 38
2019-11-19 12:00:00 9.3 4 Sudeste 12 Nordeste 0 928.9 0.2 46
2019-11-19 11:00:00 7.7 5 Sudoeste 12 Norte 0 929.1 0.7 50
2019-11-19 10:00:00 4.5 3 Nordeste 12 Noroeste 0 929.1 1.1 62
2019-11-19 09:00:00 -0.3 9 Oeste 13 Oeste 0 928.7 1.1 82
2019-11-19 08:00:00 -2 8 Sudoeste 12 Noroeste 0 928.4 0.7 88
2019-11-19 07:00:00 -0.7 9 Noroeste 23 Oeste 0 928 -0.2 80
2019-11-19 06:00:00 0.7 7 Sudoeste 25 Noroeste 0 927.6 -1 74
2019-11-19 05:00:00 0.9 18 Noroeste 25 Noroeste 0 927.7 -0.9 74
2019-11-19 04:00:00 0.1 7 Noroeste 16 Sudoeste 0 928.2 -0.5 79
2019-11-19 03:00:00 -0.1 4 Nordeste 17 Oeste 0 928.6 0 79
2019-11-19 02:00:00 -0.5 12 Noroeste 15 Noroeste 0 928.6 0.4 83
2019-11-19 01:00:00 0.3 9 Noroeste 14 Noroeste 0 928.7 0.9 78
2019-11-19 00:00:00 0.7 9 Noroeste 21 Noroeste 0 928.6 1.1 76
2019-11-18 23:00:00 3.2 10 Noroeste 28 Norte 0 928.2 1.3 67
2019-11-18 22:00:00 3.5 14 Noroeste 25 Noroeste 0 927.8 1.3 64
2019-11-18 21:00:00 3.9 13 Noroeste 19 Noroeste 0 927.5 1.6 60
2019-11-18 20:00:00 5 17 Noroeste 22 Noroeste 0 926.9 1.4 55
2019-11-18 19:00:00 4 10 Oeste 19 Noroeste 0 926.5 1.6 67
2019-11-18 18:00:00 5.9 7 Oeste 32 Norte 0 925.9 1.3 60
2019-11-18 17:00:00 8.4 23 Norte 43 Norte 0 925.5 1.1 46
2019-11-18 16:00:00 9.8 27 Norte 51 Norte 0 924.9 0.8 41
2019-11-18 15:00:00 10.1 30 Norte 44 Norte 0 924.6 0.7 41
2019-11-18 14:00:00 9.6 31 Norte 50 Norte 0 924.4 1.2 45
2019-11-18 13:00:00 9.3 29 Norte 49 Norte 0 924.1 1.8 49
2019-11-18 12:00:00 10 21 Norte 42 Norte 0 923.9 1.9 51
2019-11-18 11:00:00 8.4 26 Norte 55 Norte 0 923.2 1.9 57
2019-11-18 10:00:00 6.7 36 Norte 51 Norte 0 922.3 1 65
2019-11-18 09:00:00 5.1 24 Norte 37 Norte 0 922 1.1 73
2019-11-18 08:00:00 3.5 24 Noroeste 36 Noroeste 0 921.3 0.2 77
2019-11-18 07:00:00 3.1 18 Noroeste 25 Noroeste 0 921.3 0.1 79
2019-11-18 06:00:00 1.1 12 Noroeste 15 Noroeste 0 920.9 -0.2 92
2019-11-18 05:00:00 1.9 5 Norte 13 Noroeste 0 921.1 -0.3 92
2019-11-18 04:00:00 2.6 6 Norte 15 Oeste 0 921.2 -0.3 93
2019-11-18 03:00:00 3.9 7 Noroeste 17 Sudoeste 0 921.1 -0.8 89
2019-11-18 02:00:00 5 11 Sudoeste 14 Sudoeste 0 921.4 -1 88
2019-11-18 01:00:00 5.8 3 Este 20 Oeste 0 921.5 -1.4 86
2019-11-18 00:00:00 6.1 11 Oeste 22 Oeste 0 921.9 -1.1 84
2019-11-17 23:00:00 6.3 12 Oeste 31 Noroeste 0.4 922.4 -1.3 85
2019-11-17 22:00:00 7.1 22 Oeste 35 Oeste 0.4 922.9 -0.9 84
2019-11-17 21:00:00 6.3 3 Sudoeste 15 Oeste 0 923 -1 93
2019-11-17 20:00:00 6 7 Sudoeste 21 Oeste 0 923.7 -0.7 92
2019-11-17 19:00:00 5.9 14 Oeste 29 Oeste 0 923.8 -0.6 90
2019-11-17 18:00:00 5.9 12 Oeste 36 Oeste 0 924 -0.8 88
2019-11-17 17:00:00 6.2 15 Oeste 35 Oeste 0 924.4 -0.6 83
2019-11-17 16:00:00 7.1 25 Oeste 44 Oeste 0 924.4 -1.7 75
2019-11-17 15:00:00 8.2 30 Oeste 49 Oeste 0 924.8 -2.1 63
2019-11-17 14:00:00 9.3 27 Oeste 44 Oeste 0 925 -2 56
2019-11-17 13:00:00 8.5 22 Oeste 32 Oeste 0 926.1 -0.9 55
2019-11-17 12:00:00 7.9 19 Oeste 33 Oeste 0 926.9 0.4 56
2019-11-17 11:00:00 6.1 12 Sudoeste 18 Oeste 0 927 0.6 62
2019-11-17 10:00:00 4.5 10 Noroeste 23 Oeste 0 927 0.7 63
2019-11-17 09:00:00 3 8 Noroeste 22 Oeste 0 926.5 0.6 67
2019-11-17 08:00:00 0.7 5 Sur 24 Noroeste 0 926.4 0.3 77
2019-11-17 07:00:00 0.9 6 Norte 24 Oeste 0 926.3 0.1 75
2019-11-17 06:00:00 0.4 15 Oeste 25 Oeste 0 925.9 -0.5 79
2019-11-17 05:00:00 1.4 13 Noroeste 33 Noroeste 0 926.1 -0.6 73
2019-11-17 04:00:00 2.9 21 Noroeste 32 Noroeste 0 926.2 -0.9 67
2019-11-17 03:00:00 3 14 Noroeste 32 Noroeste 0 926.4 -0.6 66
2019-11-17 02:00:00 2 17 Noroeste 29 Norte 0 926.7 -0.5 72
2019-11-17 01:00:00 3.4 13 Noroeste 29 Noroeste 0 927.1 -0.3 65
2019-11-17 00:00:00 1.3 15 Oeste 18 Oeste 0 927 0.2 79
2019-11-16 23:00:00 2 8 Oeste 18 Sudoeste 0 927.2 0.2 76
2019-11-16 22:00:00 3 15 Oeste 22 Oeste 0 927.4 1.2 72
2019-11-16 21:00:00 3.8 14 Oeste 21 Oeste 0 926.8 1.2 66
2019-11-16 20:00:00 4.2 10 Oeste 28 Noroeste 0 927 2.2 64
2019-11-16 19:00:00 5.9 21 Noroeste 32 Noroeste 0 926.2 1.9 57
2019-11-16 18:00:00 7.6 19 Noroeste 33 Noroeste 0 925.6 1.5 48
2019-11-16 17:00:00 10.5 12 Norte 26 Noroeste 0 924.8 0.6 32
2019-11-16 16:00:00 10.8 17 Noroeste 28 Noroeste 0 924.3 0.1 23
2019-11-16 15:00:00 11.2 15 Norte 31 Norte 0 924.1 -0.3 34
2019-11-16 14:00:00 9.6 19 Noroeste 33 Noroeste 0 924.2 -0.1 33
2019-11-16 13:00:00 9.5 25 Norte 39 Norte 0 924.2 0.2 36
2019-11-16 12:00:00 7.7 20 Norte 31 Noroeste 0 924.4 1 51
2019-11-16 11:00:00 6.5 22 Norte 45 Norte 0 924.3 1.9 56
2019-11-16 10:00:00 4.3 20 Norte 32 Noroeste 0 924 2.1 68
2019-11-16 09:00:00 2.3 16 Noroeste 23 Noroeste 0 923.4 2.5 78
2019-11-16 08:00:00 0 14 Noroeste 23 Noroeste 0 922.4 1.8 85
2019-11-16 07:00:00 -1.2 12 Noroeste 15 Oeste 0 921.9 1.7 90
2019-11-16 06:00:00 -1.7 8 Noroeste 11 Noroeste 0 920.9 0.8 93
2019-11-16 05:00:00 -1.5 7 Nordeste 11 Norte 0 920.6 0.7 92
2019-11-16 04:00:00 -0.4 3 Sudeste 9 Este 0 920.2 0.4 89
2019-11-16 03:00:00 0.4 4 Sudeste 16 Noroeste 0 920.1 0.6 86
2019-11-16 02:00:00 0.2 6 Noroeste 19 Oeste 0 919.9 0.7 85
2019-11-16 01:00:00 2.4 4 Oeste 17 Noroeste 0 919.8 1.1 77
2019-11-16 00:00:00 2.8 8 Noroeste 18 Oeste 0 919.5 1.4 76
2019-11-15 23:00:00 3.5 7 Norte 18 Norte 0 919.2 1.4 74
2019-11-15 22:00:00 3.7 10 Oeste 17 Oeste 0 918.7 1.4 77
2019-11-15 21:00:00 3.8 9 Sudoeste 19 Oeste 0 918.1 1.1 81
2019-11-15 20:00:00 4.9 16 Oeste 31 Noroeste 0 917.8 1.3 76
2019-11-15 19:00:00 5.5 11 Noroeste 21 Noroeste 0 917.3 1.3 68
2019-11-15 18:00:00 6.1 16 Oeste 27 Oeste 0 917 1.3 70
2019-11-15 17:00:00 8.1 18 Oeste 35 Noroeste 0 916.5 0.8 58
2019-11-15 16:00:00 9.3 18 Noroeste 35 Noroeste 0 916 -0.1 51
2019-11-15 15:00:00 9.2 18 Noroeste 37 Noroeste 0 915.7 -1.2 51
2019-11-15 14:00:00 9.1 22 Noroeste 39 Noroeste 0 915.7 -1.2 50
2019-11-15 13:00:00 8.6 22 Oeste 35 Noroeste 0 916.1 -0.5 57
2019-11-15 12:00:00 7.6 19 Noroeste 33 Noroeste 0 916.9 0.6 59
2019-11-15 11:00:00 6.5 17 Noroeste 28 Noroeste 0 916.9 1 66
2019-11-15 10:00:00 4.8 18 Noroeste 29 Noroeste 0 916.6 1.4 73
2019-11-15 09:00:00 3.6 6 Oeste 12 Sudoeste 0 916.3 1.1 80
2019-11-15 08:00:00 3.4 10 Oeste 28 Noroeste 0 915.9 0.7 81
2019-11-15 07:00:00 3.6 20 Noroeste 31 Noroeste 0 915.2 0.2 79
2019-11-15 06:00:00 3.7 22 Oeste 32 Noroeste 0 915.2 0.4 78
2019-11-15 05:00:00 3.1 8 Sudoeste 13 Oeste 0 915.2 0.6 87
2019-11-15 04:00:00 3.1 2 Sudoeste 13 Sudeste 0 915 0.9 87
2019-11-15 03:00:00 3.2 8 Noroeste 30 Oeste 0 914.8 0.5 85
2019-11-15 02:00:00 3.6 17 Oeste 33 Noroeste 0 914.6 1.2 82
2019-11-15 01:00:00 3.6 22 Oeste 33 Oeste 0 914.1 0.6 83
2019-11-15 00:00:00 2.3 22 Oeste 55 Noroeste 3.8 914.3 0.9 89
2019-11-14 23:00:00 5.2 31 Oeste 51 Sudoeste 0 913.4 -0.4 79
2019-11-14 22:00:00 5.1 30 Oeste 49 Oeste 0.2 913.5 -0.3 79
2019-11-14 21:00:00 4.7 26 Oeste 48 Oeste 0.2 913.4 -0.1 82
2019-11-14 20:00:00 3.4 6 Sudoeste 21 Sudoeste 0 913.8 0.5 84
2019-11-14 19:00:00 4.7 13 Noroeste 27 Noroeste 0 913.8 0.6 75
2019-11-14 18:00:00 6 13 Oeste 40 Oeste 0 913.5 -0.6 71
2019-11-14 17:00:00 6.9 25 Oeste 49 Oeste 0 913.3 -0.8 65
2019-11-14 16:00:00 7.6 23 Oeste 48 Oeste 0.2 913.2 -1 65
2019-11-14 15:00:00 6.1 27 Oeste 45 Oeste 0 914.1 -1.4 71
2019-11-14 14:00:00 5.9 26 Oeste 51 Oeste 0 914.1 -1.4 71
2019-11-14 13:00:00 6.4 21 Noroeste 47 Norte 0 914.2 -1.9 73
2019-11-14 12:00:00 5.8 36 Noroeste 54 Noroeste 2.8 915.5 -1.1 76
2019-11-14 11:00:00 7.3 21 Oeste 42 Sudoeste 0.6 915.5 -0.8 88
2019-11-14 10:00:00 7.3 27 Oeste 50 Oeste 0.2 916.1 -0.3 83
2019-11-14 09:00:00 7.7 35 Oeste 57 Oeste 0 916.6 -0.4 76
2019-11-14 08:00:00 8 38 Oeste 65 Oeste 0 916.3 -1.7 75
2019-11-14 07:00:00 8.7 45 Oeste 67 Oeste 0 916.4 -2.8 72
2019-11-14 06:00:00 9.6 40 Oeste 57 Oeste 0 917 -3.6 74
2019-11-14 05:00:00 9.9 33 Oeste 56 Oeste 0 918 -3.8 77
2019-11-14 04:00:00 10.3 26 Oeste 43 Oeste 0 919.2 -3.4 80
2019-11-14 03:00:00 9.9 20 Oeste 34 Oeste 0 920.6 -2.5 84
2019-11-14 02:00:00 9.3 19 Oeste 31 Oeste 0 921.8 -2 86
2019-11-14 01:00:00 7 5 Sur 10 Sur 0 922.6 -1.7 81
2019-11-14 00:00:00 7.5 5 Sur 12 Sudoeste 0 923.1 -1.1 75
2019-11-13 23:00:00 8 10 Sudoeste 15 Sudoeste 0 923.8 -0.8 72
2019-11-13 22:00:00 8.2 12 Oeste 17 Sudoeste 0 924.3 -0.2 69
2019-11-13 21:00:00 7.9 9 Oeste 19 Sudoeste 0 924.2 0.2 71
2019-11-13 20:00:00 8.2 7 Noroeste 13 Oeste 0 924.6 0.9 68
2019-11-13 19:00:00 10.1 6 Norte 21 Oeste 0 924.5 1.3 61
2019-11-13 18:00:00 12.4 16 Oeste 36 Noroeste 0 924 1.5 51
2019-11-13 17:00:00 14.2 18 Noroeste 28 Oeste 0 923.7 2 46
2019-11-13 16:00:00 16 13 Noroeste 22 Noroeste 0 923.2 1.7 41
2019-11-13 15:00:00 14.6 17 Noroeste 41 Norte 0 922.5 1.2 45
2019-11-13 14:00:00 14.4 32 Noroeste 46 Norte 0 921.7 1.4 50
2019-11-13 13:00:00 14.1 29 Norte 42 Norte 0 921.5 2.5 61
2019-11-13 12:00:00 12.3 27 Noroeste 57 Noroeste 0.4 921.3 2.9 79
2019-11-13 11:00:00 12.9 31 Oeste 58 Noroeste 0 920.3 2 76
2019-11-13 10:00:00 11.5 36 Oeste 56 Oeste 0 919 0.4 81
2019-11-13 09:00:00 10.3 25 Oeste 41 Oeste 0 918.4 -0.7 86
2019-11-13 08:00:00 9.4 18 Oeste 28 Oeste 0.2 918.3 -1.6 90
2019-11-13 07:00:00 8.8 9 Sudoeste 28 Oeste 0.4 918.6 -1.8 91
2019-11-13 06:00:00 8.3 18 Oeste 31 Oeste 1 919.1 -1.6 91
2019-11-13 05:00:00 7.8 9 Oeste 23 Oeste 0.4 919.9 -1.4 87
2019-11-13 04:00:00 8.2 12 Oeste 32 Oeste 0 920.4 -1.9 75
2019-11-13 03:00:00 7.9 14 Oeste 32 Oeste 0 920.7 -2.6 75
2019-11-13 02:00:00 7.4 15 Oeste 22 Oeste 0 921.3 -2.3 75
2019-11-13 01:00:00 7.9 12 Oeste 24 Oeste 0 922.3 -1.2 65
2019-11-13 00:00:00 8 12 Sudoeste 28 Oeste 0 923.3 -0.7 61
2019-11-12 23:00:00 8.8 21 Oeste 41 Noroeste 0 923.6 -0.4 56
2019-11-12 22:00:00 8.8 15 Noroeste 37 Noroeste 0 923.5 -0.4 54
2019-11-12 21:00:00 8.5 18 Oeste 36 Oeste 0 924 0.2 57
2019-11-12 20:00:00 8.8 22 Oeste 36 Oeste 0 924 0.5 57
2019-11-12 19:00:00 9.8 18 Oeste 34 Noroeste 0 923.9 0.4 50
2019-11-12 18:00:00 11.1 25 Noroeste 38 Noroeste 0 923.8 0.3 44
2019-11-12 17:00:00 13.1 22 Noroeste 35 Noroeste 0 923.5 -0.5 38
2019-11-12 16:00:00 14.6 20 Noroeste 33 Norte 0 923.5 -1.3 30
2019-11-12 15:00:00 15 21 Norte 35 Norte 0 923.5 -2.4 34
2019-11-12 14:00:00 14.5 25 Norte 48 Norte 0 924 -2.1 35
2019-11-12 13:00:00 13 30 Norte 44 Norte 0 924.8 -0.8 39
2019-11-12 12:00:00 12.7 25 Norte 42 Norte 0 925.9 0.2 40
2019-11-12 11:00:00 9.5 14 Norte 45 Norte 0 926.1 1.1 49
2019-11-12 10:00:00 6.5 32 Norte 48 Noroeste 0 925.6 0.7 59
2019-11-12 09:00:00 6.2 18 Norte 46 Norte 0 925.7 0.2 59
2019-11-12 08:00:00 5.6 33 Norte 57 Norte 0 925 -0.5 60
2019-11-12 07:00:00 6.1 27 Norte 41 Norte 0 924.9 -0.4 53
2019-11-12 06:00:00 6.2 8 Nordeste 19 Norte 0 925.5 -0.5 51
2019-11-12 05:00:00 6.3 5 Norte 29 Noroeste 0 925.5 -0.6 50
2019-11-12 04:00:00 5.6 18 Norte 28 Nordeste 0 925.3 -0.8 61
2019-11-12 03:00:00 5.8 17 Nordeste 51 Norte 0 926 -0.7 61
2019-11-12 02:00:00 5.7 35 Norte 52 Norte 0 926.1 -0.6 61
2019-11-12 01:00:00 6.3 32 Noroeste 45 Noroeste 0 926.1 -0.1 57
2019-11-12 00:00:00 6.1 13 Norte 40 Norte 0 926.7 0.3 60
2019-11-11 23:00:00 7.3 18 Norte 55 Noroeste 0 926.7 0.7 54
2019-11-11 22:00:00 8.3 35 Noroeste 53 Norte 0 926.2 0.8 54
2019-11-11 21:00:00 7.9 5 Sudoeste 19 Oeste 0 926.4 1.3 67
2019-11-11 20:00:00 7.8 8 Oeste 40 Noroeste 0 926 0.8 71
2019-11-11 19:00:00 8.7 27 Noroeste 39 Noroeste 0 925.4 1.1 68
2019-11-11 18:00:00 9.3 27 Noroeste 40 Noroeste 0 925.1 1 66
2019-11-11 17:00:00 10.6 20 Noroeste 50 Noroeste 0 925.2 0.4 60
2019-11-11 16:00:00 11.1 33 Noroeste 51 Noroeste 0 924.3 -1.3 54
2019-11-11 15:00:00 11.4 35 Noroeste 54 Noroeste 0 924.1 -2.6 49
2019-11-11 14:00:00 11 16 Noroeste 36 Noroeste 0 924.8 -1.9 49
2019-11-11 13:00:00 10.1 15 Noroeste 33 Noroeste 0 925.6 -1.4 51
2019-11-11 12:00:00 8.7 20 Noroeste 32 Noroeste 0 926.7 -0.4 55
2019-11-11 11:00:00 7.8 17 Noroeste 30 Noroeste 0 926.7 -0.5 58
2019-11-11 10:00:00 6.7 16 Noroeste 28 Norte 0 927 0.4 61
2019-11-11 09:00:00 5 7 Oeste 21 Oeste 0 927.1 -0.3 69
2019-11-11 08:00:00 3.8 13 Oeste 18 Oeste 0 927.2 -0.2 70
2019-11-11 07:00:00 4.2 11 Oeste 31 Noroeste 0 926.6 -0.7 65
2019-11-11 06:00:00 3.2 12 Noroeste 19 Noroeste 0 927.4 -0.3 69
2019-11-11 05:00:00 3.7 13 Noroeste 17 Noroeste 0 927.4 0.1 64
2019-11-11 04:00:00 3.3 11 Oeste 23 Oeste 0 927.3 -0.7 65
2019-11-11 03:00:00 3.6 8 Noroeste 18 Noroeste 0 927.7 1.1 63
2019-11-11 02:00:00 3.4 14 Noroeste 23 Noroeste 0 927.3 1.1 62
2019-11-11 01:00:00 4.6 11 Noroeste 33 Noroeste 0 928 2 57
2019-11-11 00:00:00 5.3 12 Este 33 Norte 0 926.6 1.3 51
2019-11-10 23:00:00 5.4 17 Noroeste 32 Noroeste 0 926.2 0.8 55
2019-11-10 22:00:00 5.4 21 Noroeste 57 Noroeste 0 926 0.1 60
2019-11-10 21:00:00 5.9 32 Noroeste 47 Noroeste 0 925.3 0.4 58
2019-11-10 20:00:00 6.1 33 Noroeste 57 Noroeste 0 925.4 0.7 63
2019-11-10 19:00:00 5.9 12 Noroeste 37 Noroeste 0 925.9 1.8 66
2019-11-10 18:00:00 7.5 26 Noroeste 52 Noroeste 0 924.9 0.9 60
2019-11-10 17:00:00 9.8 23 Noroeste 54 Noroeste 0 924.7 0.2 48
2019-11-10 16:00:00 10.1 26 Noroeste 51 Norte 0 924.1 -1 41
2019-11-10 15:00:00 10.2 29 Noroeste 53 Norte 0 924 -1.3 41
2019-11-10 14:00:00 10.6 29 Noroeste 52 Norte 0 924.5 -0.6 43
2019-11-10 13:00:00 10.5 24 Noroeste 48 Noroeste 0 925.1 -0.9 43
2019-11-10 12:00:00 9.1 30 Noroeste 57 Noroeste 0 925.3 -1.1 49
2019-11-10 11:00:00 7.6 35 Noroeste 53 Noroeste 0 925.1 -0.5 59
2019-11-10 10:00:00 6.2 27 Noroeste 40 Noroeste 0 926 0.1 63
2019-11-10 09:00:00 5 19 Noroeste 34 Noroeste 0 926.4 0.6 69
2019-11-10 08:00:00 3.3 13 Noroeste 24 Oeste 0 925.6 -0.2 84
2019-11-10 07:00:00 3.6 13 Noroeste 22 Norte 0 925.9 -0.6 82
2019-11-10 06:00:00 3.6 15 Noroeste 23 Noroeste 0 925.8 0.1 85
2019-11-10 05:00:00 4 14 Noroeste 36 Norte 0.6 925.8 0.5 87
2019-11-10 04:00:00 3.4 22 Norte 60 Noroeste 3.4 926.5 0.7 90
2019-11-10 03:00:00 7.9 15 Noroeste 50 Noroeste 0 925.7 -1 78
2019-11-10 02:00:00 8.2 40 Oeste 63 Noroeste 0 925.3 -2 71
2019-11-10 01:00:00 8.6 23 Oeste 38 Noroeste 0 925.8 -2.4 78
2019-11-10 00:00:00 7.8 13 Noroeste 26 Noroeste 0 926.7 -1.8 85
2019-11-09 23:00:00 7.4 11 Oeste 24 Oeste 0 927.3 -1.8 85
2019-11-09 22:00:00 7.6 10 Oeste 26 Oeste 0 928.2 -1.3 77
2019-11-09 21:00:00 8.2 17 Oeste 35 Oeste 0 928.5 -0.9 69
2019-11-09 20:00:00 9 21 Oeste 41 Oeste 0 929.1 -0.2 64
2019-11-09 19:00:00 9.7 19 Oeste 35 Oeste 0 929.5 0.2 51
2019-11-09 18:00:00 9.8 26 Oeste 46 Oeste 0 929.4 -0.4 49
2019-11-09 17:00:00 10.7 30 Oeste 53 Oeste 0 929.3 -1 46
2019-11-09 16:00:00 11.7 28 Oeste 41 Oeste 0 929.3 -1.6 44
2019-11-09 15:00:00 12.1 24 Oeste 45 Oeste 0 929.8 -1.7 41
2019-11-09 14:00:00 12.6 29 Oeste 43 Oeste 0 930.3 -1.5 35
2019-11-09 13:00:00 11.9 25 Oeste 40 Noroeste 0 930.9 -0.9 39
2019-11-09 12:00:00 11 23 Oeste 36 Oeste 0 931.5 -0.7 45
2019-11-09 11:00:00 9.8 21 Oeste 31 Oeste 0 931.8 0 49
2019-11-09 10:00:00 7.9 17 Noroeste 28 Noroeste 0 931.8 0 54
2019-11-09 09:00:00 5 10 Noroeste 22 Noroeste 0 932.2 1 67
2019-11-09 08:00:00 2.9 3 Norte 18 Este 0 931.8 0.9 72
2019-11-09 07:00:00 3.5 4 Nordeste 14 Norte 0 931.8 0.9 71
2019-11-09 06:00:00 2.7 2 Sudeste 15 Este 0 931.2 0.2 76
2019-11-09 05:00:00 3.3 6 Sudeste 17 Sudoeste 0 930.9 -0.1 73
2019-11-09 04:00:00 4.7 8 Sur 21 Sudeste 0 930.9 0.3 67
2019-11-09 03:00:00 5 6 Oeste 25 Oeste 0 931 1 66
2019-11-09 02:00:00 3.7 10 Sur 21 Oeste 0 931 1.1 71
2019-11-09 01:00:00 5.9 15 Oeste 32 Oeste 0 930.6 0.6 61
2019-11-09 00:00:00 5.9 21 Oeste 37 Noroeste 0 930 0.9 60
2019-11-08 23:00:00 6.5 20 Oeste 32 Oeste 0 929.9 1.3 56
2019-11-08 22:00:00 6 17 Oeste 35 Oeste 0 930 2.2 58
2019-11-08 21:00:00 7.6 21 Noroeste 40 Oeste 0 929.1 1.7 49
2019-11-08 20:00:00 8.1 26 Noroeste 39 Oeste 0 928.6 1.6 47
2019-11-08 19:00:00 7.9 17 Oeste 43 Oeste 0 927.8 1.7 49
2019-11-08 18:00:00 8.6 24 Oeste 44 Noroeste 0 927.4 1.5 53
2019-11-08 17:00:00 10.2 21 Oeste 44 Oeste 0 927 0.8 43
2019-11-08 16:00:00 10.3 26 Noroeste 46 Noroeste 0 926.1 -0.2 44
2019-11-08 15:00:00 10.3 31 Noroeste 47 Noroeste 0 925.9 -0.6 42
2019-11-08 14:00:00 9.3 34 Noroeste 51 Noroeste 0 926.2 0.1 47
2019-11-08 13:00:00 8.6 37 Noroeste 55 Noroeste 0 926.3 0.3 51
2019-11-08 12:00:00 7.4 22 Oeste 46 Noroeste 0 926.5 0.7 54
2019-11-08 11:00:00 6.5 19 Noroeste 35 Oeste 0 926.1 1.4 61
2019-11-08 10:00:00 5.6 17 Oeste 34 Noroeste 0 926 2.2 66
2019-11-08 09:00:00 4 9 Oeste 17 Oeste 0 925.8 2.3 70
2019-11-08 08:00:00 2.5 4 Noroeste 26 Noroeste 0 924.7 1.4 75
2019-11-08 07:00:00 2.8 11 Noroeste 34 Noroeste 0 923.8 0.7 75
2019-11-08 06:00:00 3.4 21 Noroeste 34 Noroeste 0 923.5 0.4 73
2019-11-08 05:00:00 3.2 9 Norte 39 Noroeste 0 923.3 0.5 76
2019-11-08 04:00:00 3.6 17 Noroeste 35 Noroeste 0 923.1 0.2 77
2019-11-08 03:00:00 3.8 22 Noroeste 39 Noroeste 0 923.1 -0.7 81
2019-11-08 02:00:00 4.4 21 Noroeste 49 Noroeste 0 922.8 -1.8 78
2019-11-08 01:00:00 4.2 23 Noroeste 37 Oeste 0 922.9 -0.5 83
2019-11-08 00:00:00 4.4 15 Oeste 41 Oeste 1.2 923.8 1.1 83
2019-11-07 23:00:00 4.9 29 Noroeste 48 Noroeste 0.6 924.6 1.8 82
2019-11-07 22:00:00 7.6 18 Noroeste 35 Noroeste 0 923.4 0.5 47
2019-11-07 21:00:00 7.9 21 Noroeste 45 Noroeste 0 922.7 0.4 45
2019-11-07 20:00:00 8.7 29 Noroeste 45 Noroeste 0 922.8 0.9 46
2019-11-07 19:00:00 9.3 16 Noroeste 39 Noroeste 0 922.9 1.4 42
2019-11-07 18:00:00 10.8 22 Noroeste 44 Noroeste 0 922.3 0.6 39
2019-11-07 17:00:00 13.3 21 Noroeste 54 Noroeste 0 921.9 -0.2 30
2019-11-07 16:00:00 14.6 25 Oeste 51 Noroeste 0 921.5 -1.5 45
2019-11-07 15:00:00 14.5 25 Noroeste 45 Oeste 0 921.7 -2 52
2019-11-07 14:00:00 13.5 22 Oeste 42 Noroeste 0 922.1 -1.8 63
2019-11-07 13:00:00 13.7 21 Noroeste 32 Oeste 0 923 -1 66
2019-11-07 12:00:00 11.3 23 Oeste 35 Oeste 0 923.7 -0.4 86
2019-11-07 11:00:00 9.9 17 Oeste 27 Oeste 0 923.9 -0.2 89
2019-11-07 10:00:00 8.9 9 Oeste 19 Oeste 0 924 -0.2 90
2019-11-07 09:00:00 8.3 8 Oeste 16 Oeste 0 924.1 -0.1 86
2019-11-07 08:00:00 7.3 8 Oeste 19 Oeste 0 924.1 -0.4 87
2019-11-07 07:00:00 6.5 8 Noroeste 18 Sudoeste 0 924.2 -0.7 83
2019-11-07 06:00:00 5.6 11 Sudoeste 17 Sudoeste 0 924.2 -1.4 85
2019-11-07 05:00:00 6.1 7 Oeste 23 Noroeste 0 924.5 -1.6 82
2019-11-07 04:00:00 5.7 5 Norte 20 Oeste 0 924.9 -1.7 81
2019-11-07 03:00:00 6.7 13 Oeste 21 Oeste 0 925.6 -1 78
2019-11-07 02:00:00 6.8 14 Oeste 23 Oeste 0 926.1 -0.9 77
2019-11-07 01:00:00 7.4 14 Oeste 30 Oeste 0 926.6 -0.5 73
2019-11-07 00:00:00 7.6 19 Oeste 29 Oeste 0 926.6 -0.6 71
2019-11-06 23:00:00 7.3 10 Sudoeste 21 Oeste 0 927 -0.3 69
2019-11-06 22:00:00 7.8 10 Oeste 20 Oeste 0 927.1 0.7 66
2019-11-06 21:00:00 9 11 Noroeste 32 Oeste 0 927.2 1.3 60
2019-11-06 20:00:00 9.9 23 Oeste 32 Oeste 0 927.3 1.8 57
2019-11-06 19:00:00 10.6 15 Oeste 34 Oeste 0 926.4 0.8 51
2019-11-06 18:00:00 12.1 22 Oeste 40 Noroeste 0 925.9 0.3 44
2019-11-06 17:00:00 14.1 26 Noroeste 39 Noroeste 0 925.5 -0.3 39
2019-11-06 16:00:00 15.5 25 Oeste 35 Noroeste 0 925.6 -0.8 34
2019-11-06 15:00:00 14.7 22 Oeste 36 Oeste 0 925.6 -1.5 33
2019-11-06 14:00:00 15.7 18 Noroeste 35 Norte 0 925.8 -1.2 31
2019-11-06 13:00:00 15 23 Norte 38 Noroeste 0 926.4 -0.7 37
2019-11-06 12:00:00 13.4 28 Noroeste 44 Noroeste 0 927.1 0.2 43
2019-11-06 11:00:00 11.6 32 Noroeste 56 Noroeste 0 927 -0.1 50
2019-11-06 10:00:00 10.6 29 Noroeste 47 Noroeste 0 927.1 0.2 53
2019-11-06 09:00:00 8.5 27 Noroeste 45 Noroeste 0 926.9 0.3 63
2019-11-06 08:00:00 5.8 7 Oeste 17 Noroeste 0 927.1 0.8 75
2019-11-06 07:00:00 6.5 13 Noroeste 39 Noroeste 0 926.9 0.6 72
2019-11-06 06:00:00 6.8 18 Noroeste 36 Noroeste 0 926.6 0.1 72
2019-11-06 05:00:00 6.8 18 Noroeste 35 Noroeste 0 926.3 -0.1 73
2019-11-06 04:00:00 6.4 17 Noroeste 23 Oeste 0 926.3 0.1 77
2019-11-06 03:00:00 7.1 9 Oeste 18 Noroeste 0 926.5 0.3 75
2019-11-06 02:00:00 7 4 Nordeste 14 Noroeste 0 926.4 0.3 78
2019-11-06 01:00:00 6.7 8 Noroeste 13 Noroeste 0 926.2 0.3 79
2019-11-06 00:00:00 7.4 10 Noroeste 28 Noroeste 0 926.2 1.3 75